Time;durP1;ratioP1;P1;durP2;ratioP2;P2;SDS_P1;SDS_P2;PMS_P1;PMS_P2;Temp;Humidity;BMP_temperature;BMP_pressure;BME280_temperature;BME280_humidity;BME280_pressure;Samples;Min_cycle;Max_cycle;Signal;HPM_P1;HPM_P2
2022/08/05 00:01:40;;;;;;;21.35;7.85;;;;;;;15.45;100.00;99000.94;2203010;79;21090;-69
2022/08/05 00:04:40;;;;;;;19.52;7.35;;;;;;;15.41;100.00;98999.86;2231383;79;20982;-69
2022/08/05 00:07:41;;;;;;;19.67;7.75;;;;;;;15.38;100.00;98992.15;2199699;79;21045;-70
2022/08/05 00:10:41;;;;;;;21.42;7.67;;;;;;;15.35;100.00;98996.84;2233525;79;21107;-69
2022/08/05 00:13:42;;;;;;;18.82;7.92;;;;;;;15.36;100.00;98998.54;2203919;79;21063;-69
2022/08/05 00:16:42;;;;;;;19.15;7.62;;;;;;;15.40;100.00;99001.27;2241533;79;20993;-70
2022/08/05 00:19:42;;;;;;;18.48;7.15;;;;;;;15.34;100.00;98996.48;2216442;80;20984;-71
2022/08/05 00:22:43;;;;;;;22.00;6.95;;;;;;;15.37;100.00;98994.91;2203311;79;21052;-70
2022/08/05 00:25:44;;;;;;;18.60;7.10;;;;;;;15.34;100.00;98999.98;2231900;79;20997;-70
2022/08/05 00:28:44;;;;;;;18.73;7.40;;;;;;;15.14;100.00;98996.70;2201875;79;21527;-68
2022/08/05 00:31:44;;;;;;;20.08;8.43;;;;;;;15.00;100.00;98999.11;2232810;79;21001;-67
2022/08/05 00:34:45;;;;;;;20.55;7.50;;;;;;;14.92;100.00;99002.80;2202580;79;21041;-69
2022/08/05 00:37:45;;;;;;;21.85;8.20;;;;;;;14.88;100.00;99001.72;2235050;79;20954;-71
2022/08/05 00:40:46;;;;;;;20.02;8.78;;;;;;;14.85;100.00;98994.50;2201665;79;21064;-72
2022/08/05 00:43:46;;;;;;;19.42;7.50;;;;;;;14.85;100.00;98998.45;2241021;79;20976;-69
2022/08/05 00:46:47;;;;;;;19.77;7.50;;;;;;;14.89;100.00;98999.42;2241227;78;20961;-72
2022/08/05 00:49:47;;;;;;;19.27;7.62;;;;;;;14.90;100.00;98996.32;2201966;80;21582;-71
2022/08/05 00:52:48;;;;;;;23.45;8.38;;;;;;;14.88;100.00;98999.08;2242030;78;21008;-73
2022/08/05 00:55:48;;;;;;;18.20;7.17;;;;;;;14.84;100.00;98998.95;2199558;80;20985;-71
2022/08/05 00:58:49;;;;;;;19.52;7.40;;;;;;;14.80;100.00;98997.98;2240282;78;21024;-69
2022/08/05 01:01:49;;;;;;;21.70;7.45;;;;;;;14.72;100.00;98999.41;2200033;80;20977;-70
2022/08/05 01:04:50;;;;;;;20.25;7.92;;;;;;;14.71;100.00;98993.75;2241331;78;21132;-70
2022/08/05 01:07:51;;;;;;;24.82;8.80;;;;;;;14.69;100.00;98993.02;2201053;80;21522;-66
2022/08/05 01:10:51;;;;;;;19.35;7.17;;;;;;;14.60;100.00;98991.53;2216850;80;21505;-71
2022/08/05 01:13:52;;;;;;;20.97;7.62;;;;;;;14.47;100.00;98991.12;2202702;79;20988;-68
2022/08/05 01:16:52;;;;;;;20.72;6.97;;;;;;;14.37;100.00;98988.80;2234435;79;21058;-69
2022/08/05 01:19:53;;;;;;;18.90;7.03;;;;;;;14.34;100.00;98985.08;2208671;80;20977;-70
2022/08/05 01:22:54;;;;;;;17.60;6.65;;;;;;;14.41;100.00;98992.91;2208226;80;21546;-66
2022/08/05 01:25:55;;;;;;;18.92;7.35;;;;;;;14.37;100.00;98982.21;2208014;80;21519;-69
2022/08/05 01:28:55;;;;;;;20.05;7.50;;;;;;;14.34;100.00;98982.44;2203104;80;20971;-67
2022/08/05 01:31:55;;;;;;;19.60;6.85;;;;;;;14.32;100.00;98978.59;2209216;80;20985;-70
2022/08/05 01:34:56;;;;;;;20.05;7.53;;;;;;;14.33;100.00;98976.79;2210957;79;20985;-68
2022/08/05 01:37:56;;;;;;;19.57;7.35;;;;;;;14.37;100.00;98971.66;2199109;79;21041;-67
2022/08/05 01:40:57;;;;;;;20.57;7.20;;;;;;;14.32;100.00;98964.55;2240487;78;20973;-71
2022/08/05 01:43:58;;;;;;;20.55;7.70;;;;;;;14.19;100.00;98966.80;2206243;79;21471;-71
2022/08/05 01:46:58;;;;;;;16.30;6.90;;;;;;;14.06;100.00;98960.71;2206691;79;20965;-71
2022/08/05 01:49:58;;;;;;;18.25;6.95;;;;;;;13.93;100.00;98963.41;2206719;79;21005;-70
2022/08/05 01:52:59;;;;;;;20.08;7.60;;;;;;;13.97;100.00;98954.80;2208798;80;21056;-66
2022/08/05 01:55:59;;;;;;;21.23;6.58;;;;;;;14.06;100.00;98951.97;2206132;80;21024;-72
2022/08/05 01:59:00;;;;;;;20.40;7.33;;;;;;;14.11;100.00;98959.08;2203646;80;21005;-73
2022/08/05 02:02:00;;;;;;;19.80;7.03;;;;;;;14.19;100.00;98955.38;2209202;80;21544;-71
2022/08/05 02:05:01;;;;;;;21.25;7.92;;;;;;;14.27;100.00;98951.70;2202173;79;21015;-72
2022/08/05 02:08:01;;;;;;;17.67;7.45;;;;;;;14.32;100.00;98950.03;2234280;79;21013;-70
2022/08/05 02:11:02;;;;;;;19.90;7.30;;;;;;;14.35;100.00;98951.13;2203524;79;21024;-68
2022/08/05 02:14:03;;;;;;;19.65;7.10;;;;;;;14.23;100.00;98946.78;2230309;80;20985;-70
2022/08/05 02:17:03;;;;;;;19.30;6.87;;;;;;;14.12;100.00;98944.46;2199215;79;21522;-71
2022/08/05 02:20:04;;;;;;;18.52;7.22;;;;;;;14.12;100.00;98943.14;2233407;79;21043;-67
2022/08/05 02:23:04;;;;;;;18.05;6.83;;;;;;;14.08;100.00;98944.77;2204074;79;21063;-71
2022/08/05 02:26:05;;;;;;;19.05;6.42;;;;;;;13.96;100.00;98942.08;2241279;78;20973;-70
2022/08/05 02:29:05;;;;;;;13.35;5.17;;;;;;;13.90;100.00;98939.91;2208187;80;20993;-68
2022/08/05 02:32:06;;;;;;;19.52;6.20;;;;;;;13.85;100.00;98936.78;2203559;80;20996;-69
2022/08/05 02:35:06;;;;;;;17.25;6.70;;;;;;;13.76;100.00;98935.63;2200867;79;21483;-64
2022/08/05 02:38:06;;;;;;;18.20;6.72;;;;;;;13.67;100.00;98935.81;2233040;79;21504;-67
2022/08/05 02:41:07;;;;;;;18.40;5.92;;;;;;;13.57;100.00;98933.97;2200409;80;21024;-69
2022/08/05 02:44:07;;;;;;;19.00;6.40;;;;;;;13.54;100.00;98938.14;2209173;80;21009;-65
2022/08/05 02:47:08;;;;;;;19.50;6.30;;;;;;;13.53;100.00;98932.50;2207019;80;21048;-67
2022/08/05 02:50:08;;;;;;;17.65;6.50;;;;;;;13.54;100.00;98927.11;2208223;80;20977;-73
2022/08/05 02:53:08;;;;;;;17.02;6.35;;;;;;;13.61;100.00;98924.89;2204420;80;21053;-71
2022/08/05 02:56:10;;;;;;;18.67;6.55;;;;;;;13.62;100.00;98926.09;2209247;80;21512;-66
2022/08/05 02:59:10;;;;;;;18.80;6.93;;;;;;;13.62;100.00;98914.23;2192318;79;21527;-68
2022/08/05 03:02:11;;;;;;;17.20;6.15;;;;;;;13.62;100.00;98919.96;2231825;79;20997;-67
2022/08/05 03:05:12;;;;;;;17.42;6.30;;;;;;;13.61;100.00;98915.18;2210580;80;21012;-69
2022/08/05 03:08:13;;;;;;;17.70;6.42;;;;;;;13.63;100.00;98909.34;2203368;79;21020;-69
2022/08/05 03:11:13;;;;;;;18.60;6.62;;;;;;;13.71;100.00;98902.19;2231806;79;21036;-67
2022/08/05 03:14:14;;;;;;;16.82;6.00;;;;;;;13.77;100.00;98901.73;2197507;79;21561;-62
2022/08/05 03:17:15;;;;;;;18.05;6.22;;;;;;;13.83;100.00;98901.75;2231955;79;21578;-69
2022/08/05 03:20:15;;;;;;;20.02;6.97;;;;;;;13.83;100.00;98905.25;2209809;80;20973;-68
2022/08/05 03:23:16;;;;;;;13.22;4.90;;;;;;;13.83;100.00;98898.66;2197566;79;20992;-69
2022/08/05 03:26:16;;;;;;;13.28;5.30;;;;;;;13.74;100.00;98895.36;2242463;78;21004;-66
2022/08/05 03:29:17;;;;;;;14.98;5.37;;;;;;;13.64;100.00;98891.23;2183879;81;21497;-60
2022/08/05 03:32:18;;;;;;;14.73;5.33;;;;;;;13.64;100.00;98891.23;2209515;80;20993;-58
2022/08/05 03:35:19;;;;;;;23.67;6.58;;;;;;;13.59;100.00;98889.88;2210483;80;21027;-61
2022/08/05 03:38:21;;;;;;;17.70;5.83;;;;;;;13.62;100.00;98890.97;2209494;80;20964;-62
2022/08/05 03:41:22;;;;;;;19.00;6.50;;;;;;;13.74;100.00;98891.90;2210461;80;21055;-62
2022/08/05 03:44:22;;;;;;;16.97;5.87;;;;;;;13.84;100.00;98895.54;2210320;80;21019;-59
2022/08/05 03:47:23;;;;;;;13.40;4.67;;;;;;;13.91;100.00;98897.26;2211230;80;21054;-60
2022/08/05 03:50:24;;;;;;;15.72;5.72;;;;;;;13.87;100.00;98892.67;2209207;80;21034;-59
2022/08/05 03:53:25;;;;;;;16.90;6.00;;;;;;;13.81;100.00;98900.55;2208750;80;21070;-59
2022/08/05 03:56:26;;;;;;;20.30;6.28;;;;;;;13.85;100.00;98893.28;2209947;80;21099;-61
2022/08/05 03:59:26;;;;;;;22.73;6.50;;;;;;;13.99;100.00;98885.64;2209994;80;21065;-61
2022/08/05 04:02:27;;;;;;;15.75;5.15;;;;;;;14.25;100.00;98887.67;2210247;80;21048;-65
2022/08/05 04:05:28;;;;;;;14.90;5.50;;;;;;;14.47;100.00;98890.01;2209913;80;21018;-58
2022/08/05 04:08:29;;;;;;;17.87;5.73;;;;;;;14.67;100.00;98886.70;2209609;80;21047;-64
2022/08/05 04:11:30;;;;;;;15.05;5.42;;;;;;;14.91;100.00;98889.70;2246028;78;20977;-58
2022/08/05 04:14:31;;;;;;;19.23;5.90;;;;;;;15.20;100.00;98879.51;2244930;78;21043;-63
2022/08/05 04:17:31;;;;;;;18.10;5.80;;;;;;;15.41;100.00;98883.58;2246384;78;21028;-58
2022/08/05 04:20:32;;;;;;;19.35;5.72;;;;;;;15.66;100.00;98881.59;2245139;78;21517;-60
2022/08/05 04:23:33;;;;;;;18.35;5.70;;;;;;;15.92;100.00;98882.62;2242979;78;21499;-60
2022/08/05 04:26:33;;;;;;;16.50;6.00;;;;;;;16.13;100.00;98885.77;2235297;78;20948;-58
2022/08/05 04:29:34;;;;;;;17.85;6.00;;;;;;;16.38;100.00;98890.69;2244187;78;21025;-60
2022/08/05 04:32:35;;;;;;;20.17;6.40;;;;;;;16.65;100.00;98881.39;2243893;78;21002;-58
2022/08/05 04:35:36;;;;;;;17.48;6.17;;;;;;;16.95;100.00;98876.61;2237883;78;21053;-58
2022/08/05 04:38:36;;;;;;;19.20;6.67;;;;;;;17.29;100.00;98882.09;2234974;79;20990;-61
2022/08/05 04:41:37;;;;;;;18.30;6.37;;;;;;;17.62;100.00;98880.08;2241781;78;21107;-60
2022/08/05 04:44:38;;;;;;;18.57;6.95;;;;;;;17.94;100.00;98875.89;2245159;78;21082;-60
2022/08/05 04:47:38;;;;;;;20.02;6.55;;;;;;;18.23;100.00;98879.02;2241721;78;21560;-59
2022/08/05 04:50:39;;;;;;;17.45;6.00;;;;;;;18.52;100.00;98877.63;2239482;78;21032;-59
2022/08/05 04:53:40;;;;;;;19.85;6.45;;;;;;;18.78;100.00;98874.85;2256152;78;20946;-59
2022/08/05 04:56:41;;;;;;;20.70;5.87;;;;;;;19.06;100.00;98877.56;2248927;78;21030;-64
2022/08/05 04:59:41;;;;;;;14.63;5.95;;;;;;;19.34;100.00;98878.42;2241324;78;21596;-58
2022/08/05 05:02:42;;;;;;;17.32;6.00;;;;;;;19.62;100.00;98875.72;2244755;78;20968;-59
2022/08/05 05:05:42;;;;;;;18.55;5.83;;;;;;;19.88;100.00;98878.49;2241579;78;21000;-60
2022/08/05 05:08:43;;;;;;;21.82;6.40;;;;;;;20.04;100.00;98865.83;2207776;80;21012;-59
2022/08/05 05:11:43;;;;;;;17.42;6.00;;;;;;;20.32;100.00;98883.05;2208786;80;20988;-61
2022/08/05 05:14:44;;;;;;;18.35;6.33;;;;;;;20.51;100.00;98882.84;2207651;80;21538;-66
2022/08/05 05:17:44;;;;;;;16.90;5.58;;;;;;;20.77;100.00;98883.36;2227850;79;20933;-65
2022/08/05 05:20:45;;;;;;;15.45;5.55;;;;;;;21.02;100.00;98887.02;2246587;79;21320;-66
2022/08/05 05:23:45;;;;;;;18.53;5.70;;;;;;;21.21;100.00;98883.25;2211179;79;21035;-65
2022/08/05 05:26:46;;;;;;;15.48;5.47;;;;;;;21.42;100.00;98884.66;2214220;79;21016;-65
2022/08/05 05:29:46;;;;;;;17.65;6.03;;;;;;;21.65;100.00;98878.27;2205282;79;21027;-65
2022/08/05 05:32:47;;;;;;;14.58;5.50;;;;;;;21.86;100.00;98880.45;2202945;79;21075;-66
2022/08/05 05:35:47;;;;;;;15.10;4.97;;;;;;;22.05;100.00;98878.47;2247013;78;21591;-65
2022/08/05 05:38:48;;;;;;;19.40;5.70;;;;;;;22.21;100.00;98883.84;2247209;78;20984;-67
2022/08/05 05:41:48;;;;;;;15.98;5.55;;;;;;;22.40;100.00;98879.19;2193930;79;21166;-65
2022/08/05 05:44:48;;;;;;;14.30;4.90;;;;;;;22.60;100.00;98879.15;2200271;80;21035;-65
2022/08/05 05:47:49;;;;;;;16.70;5.10;;;;;;;22.79;100.00;98875.77;2249785;78;20999;-65
2022/08/05 05:50:50;;;;;;;21.53;5.20;;;;;;;22.94;100.00;98882.09;2248529;79;20988;-66
2022/08/05 05:53:50;;;;;;;18.77;5.20;;;;;;;23.05;100.00;98884.05;2204225;79;21578;-67
2022/08/05 05:56:51;;;;;;;15.30;5.20;;;;;;;23.20;100.00;98889.54;2187120;80;21033;-66
2022/08/05 05:59:51;;;;;;;15.80;4.70;;;;;;;23.34;100.00;98881.60;2197133;78;21027;-66
2022/08/05 06:02:52;;;;;;;15.73;5.27;;;;;;;23.48;100.00;98876.54;2212010;78;21016;-65
2022/08/05 06:05:52;;;;;;;17.73;4.87;;;;;;;23.58;100.00;98874.98;2202967;79;21037;-65
2022/08/05 06:08:53;;;;;;;20.07;5.03;;;;;;;23.75;100.00;98877.88;2257677;78;20996;-65
2022/08/05 06:11:53;;;;;;;12.90;5.00;;;;;;;23.90;100.00;98873.13;2254472;79;21494;-66
2022/08/05 06:14:54;;;;;;;17.63;5.13;;;;;;;24.11;100.00;98867.94;2203685;79;20984;-66
2022/08/05 06:17:54;;;;;;;15.73;5.17;;;;;;;24.21;100.00;98869.05;2239380;77;21000;-64
2022/08/05 06:20:54;;;;;;;15.57;5.07;;;;;;;24.36;100.00;98876.59;2208705;78;20989;-66
2022/08/05 06:23:55;;;;;;;15.97;5.40;;;;;;;24.51;100.00;98879.80;2248144;78;21004;-66
2022/08/05 06:26:57;;;;;;;17.02;5.65;;;;;;;24.58;100.00;98875.38;2224624;78;21030;-65
2022/08/05 06:29:58;;;;;;;13.20;5.20;;;;;;;24.73;100.00;98884.31;2248444;78;21012;-66
2022/08/05 06:32:58;;;;;;;12.57;4.87;;;;;;;24.90;100.00;98879.61;2250082;78;21024;-65
2022/08/05 06:35:58;;;;;;;17.33;5.13;;;;;;;25.05;100.00;98878.77;2248279;79;20957;-65
2022/08/05 06:38:59;;;;;;;16.27;5.03;;;;;;;25.24;100.00;98870.66;2248894;78;21491;-66
2022/08/05 06:42:01;;;;;;;15.37;4.90;;;;;;;25.42;100.00;98866.27;2248182;78;21544;-66
2022/08/05 06:45:01;;;;;;;18.17;5.53;;;;;;;25.52;100.00;98865.45;2248954;78;21108;-65
2022/08/05 06:48:02;;;;;;;15.00;4.90;;;;;;;25.73;100.00;98870.52;2248246;78;20980;-65
2022/08/05 06:51:02;;;;;;;16.10;5.30;;;;;;;25.78;100.00;98868.10;2248984;78;21047;-66
2022/08/05 06:54:03;;;;;;;14.87;5.07;;;;;;;25.80;100.00;98867.91;2249374;78;21466;-67
2022/08/05 06:57:03;;;;;;;16.43;5.40;;;;;;;25.87;100.00;98869.63;2249511;78;20973;-67
2022/08/05 07:00:03;;;;;;;17.07;5.13;;;;;;;26.09;100.00;98854.91;2249191;78;20961;-66
2022/08/05 07:03:04;;;;;;;14.77;4.87;;;;;;;26.11;99.54;98860.91;2248357;78;21095;-67
2022/08/05 07:06:05;;;;;;;16.55;4.90;;;;;;;26.24;99.52;98856.16;2249009;78;21024;-66
2022/08/05 07:09:06;;;;;;;14.27;4.90;;;;;;;26.36;99.19;98855.11;2248455;79;21052;-66
2022/08/05 07:12:06;;;;;;;15.73;5.03;;;;;;;26.52;100.00;98849.95;2248150;79;21513;-64
2022/08/05 07:18:09;;;;;;;17.48;4.85;;;;;;;26.97;96.07;98853.16;2210390;79;21080;-66
2022/08/05 07:21:09;;;;;;;15.20;5.03;;;;;;;27.08;94.53;98859.83;2240669;78;21006;-63
2022/08/05 07:24:10;;;;;;;14.40;4.90;;;;;;;27.27;95.40;98862.31;2236734;79;21014;-65
2022/08/05 07:27:11;;;;;;;12.03;4.10;;;;;;;27.42;93.33;98853.57;2240127;78;20993;-65
2022/08/05 07:30:11;;;;;;;13.37;4.70;;;;;;;27.62;91.19;98854.16;2237658;79;21509;-65
2022/08/05 07:33:12;;;;;;;15.20;4.77;;;;;;;27.71;89.96;98856.14;2235248;78;21464;-64
2022/08/05 07:36:13;;;;;;;13.53;4.40;;;;;;;27.82;89.69;98857.72;2246330;79;21308;-66
2022/08/05 07:39:14;;;;;;;;;;;;;;;27.95;88.93;98859.59;2245198;78;20993;-62
2022/08/05 07:42:15;;;;;;;13.40;4.43;;;;;;;28.06;85.22;98854.16;2243734;79;20148;-63
2022/08/05 07:45:15;;;;;;;14.17;4.37;;;;;;;28.14;86.38;98848.58;2239427;78;21021;-61
2022/08/05 07:48:16;;;;;;;14.93;4.47;;;;;;;28.39;88.96;98860.08;2252927;77;21012;-65
2022/08/05 07:51:16;;;;;;;12.07;4.43;;;;;;;28.51;84.91;98858.91;2248669;78;21055;-63
2022/08/05 07:54:16;;;;;;;15.17;4.47;;;;;;;28.47;82.37;98862.53;2215829;79;20973;-62
2022/08/05 07:57:17;;;;;;;12.80;4.40;;;;;;;28.51;82.41;98858.91;2208512;79;21034;-60
2022/08/05 08:00:17;;;;;;;14.83;4.60;;;;;;;28.55;77.31;98852.06;2248649;77;21026;-62
2022/08/05 08:03:18;;;;;;;12.60;3.87;;;;;;;28.59;79.85;98853.31;2211096;80;21511;-66
2022/08/05 08:06:18;;;;;;;12.53;4.20;;;;;;;28.56;75.21;98851.53;2213397;80;21534;-65
2022/08/05 08:09:19;;;;;;;13.03;3.97;;;;;;;28.65;78.22;98834.95;2238114;79;21118;-65
2022/08/05 08:12:19;;;;;;;11.57;4.10;;;;;;;28.65;78.22;98834.95;2231611;79;21077;-66
2022/08/05 08:15:20;;;;;;;15.17;4.33;;;;;;;28.92;79.58;98846.19;2235581;79;21046;-65
2022/08/05 08:18:20;;;;;;;16.37;3.67;;;;;;;29.18;77.84;98847.98;2239832;79;21025;-62
2022/08/05 08:21:21;;;;;;;11.23;3.90;;;;;;;29.34;74.50;98837.25;2225397;79;20955;-66
2022/08/05 08:24:23;;;;;;;12.85;4.00;;;;;;;29.43;75.74;98849.98;2211040;79;21023;-66
2022/08/05 08:27:23;;;;;;;14.27;3.83;;;;;;;29.61;76.36;98847.89;2235359;79;21066;-66
2022/08/05 08:30:24;;;;;;;11.28;3.80;;;;;;;29.70;72.48;98847.95;2237877;79;21623;-66
2022/08/05 08:33:24;;;;;;;12.67;3.90;;;;;;;29.79;71.82;98847.98;2232348;79;21103;-66
2022/08/05 08:36:25;;;;;;;11.27;3.80;;;;;;;29.86;69.85;98841.23;2200884;80;21079;-66
2022/08/05 08:39:25;;;;;;;12.67;3.73;;;;;;;29.96;70.56;98844.27;2215790;80;21000;-66
2022/08/05 08:42:26;;;;;;;13.13;3.70;;;;;;;30.11;69.33;98842.58;2175837;80;20971;-67
2022/08/05 08:45:26;;;;;;;11.23;3.77;;;;;;;30.31;68.98;98845.66;2171663;81;21010;-67
2022/08/05 08:48:27;;;;;;;11.23;3.60;;;;;;;30.43;68.37;98841.22;2183127;81;20997;-67
2022/08/05 08:51:27;;;;;;;7.33;3.20;;;;;;;30.45;66.37;98844.52;2198222;80;21559;-67
2022/08/05 08:54:27;;;;;;;9.60;3.40;;;;;;;30.46;66.52;98846.17;2192186;80;21588;-67
2022/08/05 08:57:28;;;;;;;11.27;3.60;;;;;;;30.49;62.43;98838.14;2191687;80;20959;-67
2022/08/05 09:00:28;;;;;;;9.20;3.63;;;;;;;30.56;64.39;98840.27;2214551;80;20961;-65
2022/08/05 09:03:29;;;;;;;9.80;3.57;;;;;;;30.77;65.08;98838.16;2214687;80;21001;-67
2022/08/05 09:06:29;;;;;;;11.43;3.60;;;;;;;31.04;66.22;98839.53;2217489;80;20989;-67
2022/08/05 09:09:30;;;;;;;14.83;3.57;;;;;;;31.25;63.91;98840.95;2211326;80;20951;-67
2022/08/05 09:12:30;;;;;;;13.43;3.60;;;;;;;31.34;62.12;98833.88;2212251;80;21476;-67
2022/08/05 09:15:30;;;;;;;11.13;4.00;;;;;;;31.43;62.50;98840.11;2211677;80;20989;-67
2022/08/05 09:18:31;;;;;;;10.32;3.62;;;;;;;31.65;59.97;98838.27;2217404;80;21715;-67
2022/08/05 09:21:32;;;;;;;12.03;3.73;;;;;;;31.73;60.82;98837.10;2213376;80;21009;-67
2022/08/05 09:24:32;;;;;;;9.38;3.67;;;;;;;31.76;59.83;98841.52;2214745;80;20990;-66
2022/08/05 09:27:33;;;;;;;13.13;3.80;;;;;;;31.85;61.18;98838.48;2216843;80;21033;-67
2022/08/05 09:30:34;;;;;;;12.82;3.72;;;;;;;31.95;58.34;98841.45;2216825;79;21021;-60
2022/08/05 09:33:34;;;;;;;11.50;3.40;;;;;;;31.97;57.10;98840.70;2248648;79;21020;-66
2022/08/05 09:36:34;;;;;;;11.53;3.80;;;;;;;32.10;58.33;98830.98;2224641;79;21058;-64
2022/08/05 09:39:35;;;;;;;10.80;3.83;;;;;;;32.28;58.84;98832.81;2202383;80;20973;-62
2022/08/05 09:42:35;;;;;;;12.43;3.83;;;;;;;32.50;58.42;98829.51;2207718;80;20953;-66
2022/08/05 09:45:36;;;;;;;27.17;4.12;;;;;;;32.74;55.19;98831.70;2206905;80;20968;-65
2022/08/05 09:48:37;;;;;;;94.97;8.10;;;;;;;32.80;55.43;98820.39;2212025;78;20961;-66
2022/08/05 09:51:38;;;;;;;20.97;4.10;;;;;;;32.86;55.70;98824.05;2241356;78;21547;-67
2022/08/05 09:54:38;;;;;;;91.90;8.23;;;;;;;33.09;57.15;98818.56;2238612;79;20989;-66
2022/08/05 09:57:38;;;;;;;57.58;5.75;;;;;;;33.29;55.30;98813.28;2242341;78;20949;-66
2022/08/05 10:00:39;;;;;;;36.00;4.60;;;;;;;33.34;53.76;98810.64;2241364;79;21005;-66
2022/08/05 10:03:40;;;;;;;46.05;6.17;;;;;;;33.34;53.16;98813.36;2242019;78;21062;-64
2022/08/05 10:06:40;;;;;;;24.98;4.22;;;;;;;33.26;50.31;98807.80;2237902;78;21464;-64
2022/08/05 10:09:41;;;;;;;72.60;7.30;;;;;;;33.10;50.95;98810.72;2197964;81;21460;-66
2022/08/05 10:12:41;;;;;;;;;;;;;;;33.20;51.58;98804.63;2202369;80;20965;-65
2022/08/05 10:15:42;;;;;;;12.37;3.80;;;;;;;33.48;51.69;98803.03;2201207;80;20422;-64
2022/08/05 10:18:43;;;;;;;10.80;3.85;;;;;;;33.60;50.98;98801.59;2199740;80;21000;-64
2022/08/05 10:21:44;;;;;;;;;;;;;;;33.76;48.42;98789.97;2206044;80;21001;-65
2022/08/05 10:24:45;;;;;;;11.00;3.70;;;;;;;33.92;49.25;98788.84;2207329;80;20108;-66
2022/08/05 10:27:45;;;;;;;;;;;;;;;34.10;49.83;98787.77;2199154;80;21074;-68
2022/08/05 10:30:46;;;;;;;19.87;4.00;;;;;;;34.19;48.56;98785.75;2201210;80;20493;-67
2022/08/05 10:33:47;;;;;;;19.20;3.60;;;;;;;34.07;48.93;98793.16;2204670;79;21546;-67
2022/08/05 10:36:48;;;;;;;;;;;;;;;34.06;48.93;98785.25;2202404;79;20957;-68
2022/08/05 10:39:48;;;;;;;33.20;4.87;;;;;;;34.02;44.15;98780.83;2202210;80;20104;-67
2022/08/05 10:42:49;;;;;;;;;;;;;;;34.14;46.72;98780.77;2200610;80;21028;-67
2022/08/05 10:45:49;;;;;;;29.63;4.93;;;;;;;34.00;43.54;98775.64;2206026;80;20387;-64
2022/08/05 10:48:50;;;;;;;;;;;;;;;33.94;46.88;98778.00;2204551;80;21000;-68
2022/08/05 10:51:56;;;;;;;18.97;4.10;;;;;;;34.08;45.92;98777.14;2202143;80;20097;-66
2022/08/05 10:54:53;;;;;;;9.80;3.60;;;;;;;34.16;45.70;98775.33;2181317;80;21067;-67
2022/08/05 10:57:53;;;;;;;;;;;;;;;34.29;45.87;98782.36;2201828;80;21004;-67
2022/08/05 11:00:53;;;;;;;10.43;3.33;;;;;;;34.35;45.21;98776.45;2203171;80;20128;-60
2022/08/05 11:03:54;;;;;;;16.42;3.67;;;;;;;34.31;44.20;98776.69;2195755;80;21004;-66
2022/08/05 11:06:54;;;;;;;9.45;3.62;;;;;;;34.50;46.45;98777.22;2201339;80;21523;-66
2022/08/05 11:09:55;;;;;;;12.60;3.52;;;;;;;34.63;45.46;98769.22;2200890;80;21020;-63
2022/08/05 11:12:55;;;;;;;10.63;3.65;;;;;;;34.72;44.25;98760.88;2203425;80;21004;-67
2022/08/05 11:15:56;;;;;;;8.83;3.30;;;;;;;34.79;44.57;98759.37;2201515;79;21099;-65
2022/08/05 11:18:56;;;;;;;9.98;3.47;;;;;;;34.97;42.69;98765.86;2200282;80;20984;-68
2022/08/05 11:21:57;;;;;;;12.65;3.70;;;;;;;35.11;43.25;98766.81;2205453;80;20949;-62
2022/08/05 11:24:57;;;;;;;9.38;3.50;;;;;;;35.08;42.19;98759.15;2201312;80;21501;-68
2022/08/05 11:27:58;;;;;;;11.65;3.80;;;;;;;35.21;41.51;98761.46;2201674;80;21463;-68
2022/08/05 11:31:00;;;;;;;12.70;3.85;;;;;;;35.16;42.48;98752.70;2201996;80;20978;-66
2022/08/05 11:34:01;;;;;;;9.50;3.60;;;;;;;35.32;41.21;98756.44;2208039;79;20989;-66
2022/08/05 11:37:01;;;;;;;9.50;3.47;;;;;;;35.42;42.12;98758.44;2210903;79;21001;-66
2022/08/05 11:40:01;;;;;;;11.43;3.80;;;;;;;35.64;41.59;98761.08;2220824;79;21039;-67
2022/08/05 11:43:02;;;;;;;11.50;3.65;;;;;;;35.68;39.47;98761.39;2239593;79;21024;-65
2022/08/05 11:46:03;;;;;;;9.50;3.72;;;;;;;35.67;40.16;98764.64;2242156;79;21045;-64
2022/08/05 11:49:03;;;;;;;9.53;3.83;;;;;;;35.83;39.32;98762.08;2224105;79;20979;-65
2022/08/05 11:52:03;;;;;;;8.08;3.70;;;;;;;35.98;40.28;98761.39;2209391;79;20998;-65
2022/08/05 11:55:04;;;;;;;9.43;3.80;;;;;;;36.06;39.89;98756.27;2205357;80;21484;-63
2022/08/05 11:58:05;;;;;;;12.68;3.98;;;;;;;36.05;38.90;98760.06;2204650;80;21014;-61
2022/08/05 12:01:05;;;;;;;8.93;3.58;;;;;;;36.13;39.35;98755.20;2200289;80;21049;-59
2022/08/05 12:04:06;;;;;;;13.08;3.92;;;;;;;36.30;40.03;98750.42;2199553;80;21057;-59
2022/08/05 12:07:07;;;;;;;9.20;3.95;;;;;;;36.31;38.47;98750.70;2198145;81;21011;-59
2022/08/05 12:10:08;;;;;;;7.87;3.40;;;;;;;36.30;38.71;98749.61;2202799;79;21509;-64
2022/08/05 12:13:09;;;;;;;11.88;3.80;;;;;;;36.34;36.94;98742.53;2199771;80;21006;-63
2022/08/05 12:16:09;;;;;;;12.03;3.80;;;;;;;36.35;37.42;98747.73;2199946;80;21046;-61
2022/08/05 12:19:10;;;;;;;8.63;3.80;;;;;;;36.42;38.35;98754.30;2202726;80;21051;-60
2022/08/05 12:22:11;;;;;;;8.85;3.75;;;;;;;36.43;37.73;98746.39;2208628;79;20985;-60
2022/08/05 12:25:11;;;;;;;12.88;4.30;;;;;;;36.46;36.63;98743.13;2210918;80;21009;-63
2022/08/05 12:28:12;;;;;;;10.18;3.90;;;;;;;36.35;36.26;98750.45;2209358;79;21013;-66
2022/08/05 12:31:12;;;;;;;10.85;3.98;;;;;;;36.23;35.65;98743.81;2205533;80;21492;-66
2022/08/05 12:34:13;;;;;;;13.20;3.75;;;;;;;36.18;34.49;98741.05;2199301;80;20985;-66
2022/08/05 12:37:13;;;;;;;10.93;3.90;;;;;;;36.19;35.42;98740.49;2198718;80;20997;-66
2022/08/05 12:40:14;;;;;;;10.40;3.80;;;;;;;36.22;35.08;98746.27;2204197;80;21056;-66
2022/08/05 12:43:14;;;;;;;8.53;3.70;;;;;;;36.22;36.00;98738.59;2203293;80;20999;-66
2022/08/05 12:46:16;;;;;;;9.70;3.87;;;;;;;36.27;35.70;98735.91;2199566;80;21105;-67
2022/08/05 12:49:16;;;;;;;8.13;3.70;;;;;;;36.25;36.10;98735.36;2203164;80;21092;-66
2022/08/05 12:52:17;;;;;;;10.20;3.70;;;;;;;36.46;36.04;98742.31;2201480;80;21057;-66
2022/08/05 12:55:17;;;;;;;12.00;3.90;;;;;;;36.64;36.17;98730.12;2199909;79;20993;-66
2022/08/05 12:58:18;;;;;;;10.18;3.90;;;;;;;36.69;33.70;98726.02;2202651;80;21045;-66
2022/08/05 13:01:18;;;;;;;11.53;3.90;;;;;;;36.72;34.44;98729.58;2200275;80;21050;-66
2022/08/05 13:04:19;;;;;;;9.88;3.85;;;;;;;36.70;33.15;98726.30;2201410;80;21118;-66
2022/08/05 13:07:19;;;;;;;13.32;4.17;;;;;;;36.74;33.25;98721.40;2200322;80;21510;-67
2022/08/05 13:10:20;;;;;;;13.60;3.90;;;;;;;36.74;34.55;98722.77;2204532;80;21615;-67
2022/08/05 13:13:21;;;;;;;12.63;3.60;;;;;;;36.82;34.90;98722.00;2202574;80;21053;-67
2022/08/05 13:16:22;;;;;;;16.17;4.00;;;;;;;37.09;35.56;98717.69;2200171;80;20997;-67
2022/08/05 13:19:23;;;;;;;9.50;3.80;;;;;;;37.15;33.75;98719.89;2200375;80;21544;-66
2022/08/05 13:22:24;;;;;;;8.90;3.62;;;;;;;37.02;33.10;98716.58;2200595;80;21002;-66
2022/08/05 13:25:24;;;;;;;10.20;3.75;;;;;;;37.01;34.27;98714.11;2202841;80;21440;-66
2022/08/05 13:28:25;;;;;;;7.45;3.45;;;;;;;37.08;34.13;98711.94;2202274;80;20990;-67
2022/08/05 13:31:25;;;;;;;12.30;3.70;;;;;;;37.12;34.46;98713.05;2198265;80;21064;-66
2022/08/05 13:34:25;;;;;;;18.85;4.28;;;;;;;37.26;33.24;98713.37;2204659;79;21022;-67
2022/08/05 13:37:26;;;;;;;8.15;3.50;;;;;;;37.24;33.84;98712.25;2204292;80;20990;-66
2022/08/05 13:40:26;;;;;;;9.28;3.60;;;;;;;37.37;33.59;98701.89;2204186;80;21064;-67
2022/08/05 13:43:27;;;;;;;10.00;3.52;;;;;;;37.49;33.82;98703.00;2200450;80;21560;-66
2022/08/05 13:46:27;;;;;;;10.75;3.75;;;;;;;37.68;33.45;98695.05;2200516;80;20978;-66
2022/08/05 13:49:28;;;;;;;13.30;3.75;;;;;;;37.72;31.83;98692.05;2202541;79;21002;-66
2022/08/05 13:52:28;;;;;;;9.95;3.70;;;;;;;37.66;33.68;98691.23;2200383;80;20997;-64
2022/08/05 13:55:29;;;;;;;8.68;3.62;;;;;;;37.53;33.23;98689.87;2201838;80;20985;-66
2022/08/05 13:58:29;;;;;;;9.63;3.60;;;;;;;37.39;31.31;98677.84;2202133;80;20985;-66
2022/08/05 14:01:30;;;;;;;10.63;3.75;;;;;;;37.05;32.98;98680.53;2199162;80;21496;-66